sensor_id;sensor_type;location;lat;lon;timestamp;P1;durP1;ratioP1;P2;durP2;ratioP2
13580;SDS011;6861;46.170;7.222;2023-07-13T00:02:27;5.18;;;3.38;;
13580;SDS011;6861;46.170;7.222;2023-07-13T00:04:55;5.28;;;3.45;;
13580;SDS011;6861;46.170;7.222;2023-07-13T00:07:25;5.28;;;3.83;;
13580;SDS011;6861;46.170;7.222;2023-07-13T00:09:53;3.58;;;3.22;;
13580;SDS011;6861;46.170;7.222;2023-07-13T00:12:22;5.60;;;3.40;;
13580;SDS011;6861;46.170;7.222;2023-07-13T00:14:52;6.07;;;3.25;;
13580;SDS011;6861;46.170;7.222;2023-07-13T00:17:20;6.07;;;3.47;;
13580;SDS011;6861;46.170;7.222;2023-07-13T00:19:49;7.32;;;3.35;;
13580;SDS011;6861;46.170;7.222;2023-07-13T00:22:18;6.85;;;3.45;;
13580;SDS011;6861;46.170;7.222;2023-07-13T00:24:48;5.45;;;3.60;;
13580;SDS011;6861;46.170;7.222;2023-07-13T00:27:18;4.68;;;3.53;;
13580;SDS011;6861;46.170;7.222;2023-07-13T00:29:46;5.63;;;3.15;;
13580;SDS011;6861;46.170;7.222;2023-07-13T00:32:14;4.55;;;3.22;;
13580;SDS011;6861;46.170;7.222;2023-07-13T00:34:42;9.48;;;3.33;;
13580;SDS011;6861;46.170;7.222;2023-07-13T00:37:11;7.78;;;3.40;;
13580;SDS011;6861;46.170;7.222;2023-07-13T00:39:39;4.35;;;3.25;;
13580;SDS011;6861;46.170;7.222;2023-07-13T00:42:08;8.10;;;3.80;;
13580;SDS011;6861;46.170;7.222;2023-07-13T00:44:37;7.60;;;3.35;;
13580;SDS011;6861;46.170;7.222;2023-07-13T00:47:06;7.32;;;3.58;;
13580;SDS011;6861;46.170;7.222;2023-07-13T00:49:34;7.05;;;3.58;;
13580;SDS011;6861;46.170;7.222;2023-07-13T00:52:04;6.00;;;3.40;;
13580;SDS011;6861;46.170;7.222;2023-07-13T00:54:35;6.82;;;3.85;;
13580;SDS011;6861;46.170;7.222;2023-07-13T00:57:09;4.13;;;3.33;;
13580;SDS011;6861;46.170;7.222;2023-07-13T00:59:42;7.30;;;3.67;;
13580;SDS011;6861;46.170;7.222;2023-07-13T01:02:13;5.72;;;3.10;;
13580;SDS011;6861;46.170;7.222;2023-07-13T01:04:42;6.75;;;3.38;;
13580;SDS011;6861;46.170;7.222;2023-07-13T01:07:11;5.10;;;3.50;;
13580;SDS011;6861;46.170;7.222;2023-07-13T01:09:40;8.85;;;3.67;;
13580;SDS011;6861;46.170;7.222;2023-07-13T01:12:10;7.75;;;3.58;;
13580;SDS011;6861;46.170;7.222;2023-07-13T01:14:38;5.53;;;3.33;;
13580;SDS011;6861;46.170;7.222;2023-07-13T01:17:08;8.35;;;3.50;;
13580;SDS011;6861;46.170;7.222;2023-07-13T01:19:38;6.05;;;3.97;;
13580;SDS011;6861;46.170;7.222;2023-07-13T01:22:10;5.95;;;3.63;;
13580;SDS011;6861;46.170;7.222;2023-07-13T01:24:41;5.10;;;3.65;;
13580;SDS011;6861;46.170;7.222;2023-07-13T01:27:11;8.32;;;3.63;;
13580;SDS011;6861;46.170;7.222;2023-07-13T01:29:41;3.55;;;3.10;;
13580;SDS011;6861;46.170;7.222;2023-07-13T01:32:11;5.18;;;3.70;;
13580;SDS011;6861;46.170;7.222;2023-07-13T01:34:41;6.20;;;3.53;;
13580;SDS011;6861;46.170;7.222;2023-07-13T01:37:12;4.88;;;3.05;;
13580;SDS011;6861;46.170;7.222;2023-07-13T01:39:40;4.82;;;3.38;;
13580;SDS011;6861;46.170;7.222;2023-07-13T01:42:08;5.70;;;3.75;;
13580;SDS011;6861;46.170;7.222;2023-07-13T01:44:36;7.47;;;3.70;;
13580;SDS011;6861;46.170;7.222;2023-07-13T01:47:05;5.15;;;3.95;;
13580;SDS011;6861;46.170;7.222;2023-07-13T01:49:33;4.45;;;3.50;;
13580;SDS011;6861;46.170;7.222;2023-07-13T01:52:01;5.25;;;3.88;;
13580;SDS011;6861;46.170;7.222;2023-07-13T01:54:31;5.05;;;3.92;;
13580;SDS011;6861;46.170;7.222;2023-07-13T01:57:00;6.18;;;4.22;;
13580;SDS011;6861;46.170;7.222;2023-07-13T01:59:29;6.20;;;4.22;;
13580;SDS011;6861;46.170;7.222;2023-07-13T02:01:59;6.90;;;4.00;;
13580;SDS011;6861;46.170;7.222;2023-07-13T02:04:28;5.22;;;3.75;;
13580;SDS011;6861;46.170;7.222;2023-07-13T02:06:56;6.53;;;3.50;;
13580;SDS011;6861;46.170;7.222;2023-07-13T02:09:24;6.28;;;3.53;;
13580;SDS011;6861;46.170;7.222;2023-07-13T02:11:53;8.07;;;4.15;;
13580;SDS011;6861;46.170;7.222;2023-07-13T02:14:22;6.45;;;3.92;;
13580;SDS011;6861;46.170;7.222;2023-07-13T02:16:50;4.35;;;3.33;;
13580;SDS011;6861;46.170;7.222;2023-07-13T02:19:18;4.97;;;3.72;;
13580;SDS011;6861;46.170;7.222;2023-07-13T02:21:46;6.97;;;4.30;;
13580;SDS011;6861;46.170;7.222;2023-07-13T02:24:14;5.57;;;3.55;;
13580;SDS011;6861;46.170;7.222;2023-07-13T02:26:44;4.32;;;3.47;;
13580;SDS011;6861;46.170;7.222;2023-07-13T02:29:13;6.10;;;3.75;;
13580;SDS011;6861;46.170;7.222;2023-07-13T02:31:42;7.05;;;3.50;;
13580;SDS011;6861;46.170;7.222;2023-07-13T02:34:10;5.38;;;3.85;;
13580;SDS011;6861;46.170;7.222;2023-07-13T02:36:38;5.45;;;4.07;;
13580;SDS011;6861;46.170;7.222;2023-07-13T02:39:07;5.70;;;4.00;;
13580;SDS011;6861;46.170;7.222;2023-07-13T02:41:36;4.65;;;3.83;;
13580;SDS011;6861;46.170;7.222;2023-07-13T02:44:04;6.53;;;4.30;;
13580;SDS011;6861;46.170;7.222;2023-07-13T02:46:36;4.50;;;3.78;;
13580;SDS011;6861;46.170;7.222;2023-07-13T02:49:04;5.53;;;3.75;;
13580;SDS011;6861;46.170;7.222;2023-07-13T02:51:33;7.68;;;4.10;;
13580;SDS011;6861;46.170;7.222;2023-07-13T02:54:02;4.35;;;3.70;;
13580;SDS011;6861;46.170;7.222;2023-07-13T02:56:31;7.72;;;3.70;;
13580;SDS011;6861;46.170;7.222;2023-07-13T02:59:00;7.97;;;3.88;;
13580;SDS011;6861;46.170;7.222;2023-07-13T03:01:29;6.32;;;3.83;;
13580;SDS011;6861;46.170;7.222;2023-07-13T03:04:02;5.80;;;3.50;;
13580;SDS011;6861;46.170;7.222;2023-07-13T03:06:30;6.15;;;3.70;;
13580;SDS011;6861;46.170;7.222;2023-07-13T03:08:59;7.97;;;3.83;;
13580;SDS011;6861;46.170;7.222;2023-07-13T03:11:27;6.13;;;3.38;;
13580;SDS011;6861;46.170;7.222;2023-07-13T03:13:57;4.22;;;3.30;;
13580;SDS011;6861;46.170;7.222;2023-07-13T03:16:26;4.63;;;3.50;;
13580;SDS011;6861;46.170;7.222;2023-07-13T03:18:54;5.47;;;3.97;;
13580;SDS011;6861;46.170;7.222;2023-07-13T03:21:24;4.60;;;3.55;;
13580;SDS011;6861;46.170;7.222;2023-07-13T03:23:52;7.30;;;3.50;;
13580;SDS011;6861;46.170;7.222;2023-07-13T03:26:20;5.05;;;3.72;;
13580;SDS011;6861;46.170;7.222;2023-07-13T03:28:48;4.70;;;3.25;;
13580;SDS011;6861;46.170;7.222;2023-07-13T03:31:17;7.63;;;3.60;;
13580;SDS011;6861;46.170;7.222;2023-07-13T03:33:47;6.38;;;3.80;;
13580;SDS011;6861;46.170;7.222;2023-07-13T03:36:16;4.60;;;3.40;;
13580;SDS011;6861;46.170;7.222;2023-07-13T03:38:48;4.65;;;3.58;;
13580;SDS011;6861;46.170;7.222;2023-07-13T03:41:17;4.18;;;3.78;;
13580;SDS011;6861;46.170;7.222;2023-07-13T03:43:46;4.88;;;3.65;;
13580;SDS011;6861;46.170;7.222;2023-07-13T03:46:15;5.72;;;3.45;;
13580;SDS011;6861;46.170;7.222;2023-07-13T03:48:44;8.50;;;3.50;;
13580;SDS011;6861;46.170;7.222;2023-07-13T03:51:14;6.80;;;3.85;;
13580;SDS011;6861;46.170;7.222;2023-07-13T03:53:44;6.18;;;3.58;;
13580;SDS011;6861;46.170;7.222;2023-07-13T03:56:15;4.75;;;3.45;;
13580;SDS011;6861;46.170;7.222;2023-07-13T03:58:45;8.32;;;3.65;;
13580;SDS011;6861;46.170;7.222;2023-07-13T04:01:15;6.03;;;3.17;;
13580;SDS011;6861;46.170;7.222;2023-07-13T04:03:45;5.20;;;3.80;;
13580;SDS011;6861;46.170;7.222;2023-07-13T04:06:15;5.50;;;3.40;;
13580;SDS011;6861;46.170;7.222;2023-07-13T04:08:48;7.30;;;3.83;;
13580;SDS011;6861;46.170;7.222;2023-07-13T04:11:19;4.95;;;3.67;;
13580;SDS011;6861;46.170;7.222;2023-07-13T04:13:49;5.28;;;3.80;;
13580;SDS011;6861;46.170;7.222;2023-07-13T04:16:18;5.75;;;3.65;;
13580;SDS011;6861;46.170;7.222;2023-07-13T04:18:47;5.25;;;3.95;;
13580;SDS011;6861;46.170;7.222;2023-07-13T04:21:16;5.80;;;3.80;;
13580;SDS011;6861;46.170;7.222;2023-07-13T04:23:44;4.75;;;3.90;;
13580;SDS011;6861;46.170;7.222;2023-07-13T04:26:12;7.35;;;3.90;;
13580;SDS011;6861;46.170;7.222;2023-07-13T04:28:42;6.35;;;4.07;;
13580;SDS011;6861;46.170;7.222;2023-07-13T04:31:10;5.85;;;3.80;;
13580;SDS011;6861;46.170;7.222;2023-07-13T04:33:38;5.55;;;3.58;;
13580;SDS011;6861;46.170;7.222;2023-07-13T04:36:06;7.05;;;3.63;;
13580;SDS011;6861;46.170;7.222;2023-07-13T04:38:37;4.85;;;3.65;;
13580;SDS011;6861;46.170;7.222;2023-07-13T04:41:06;6.38;;;3.65;;
13580;SDS011;6861;46.170;7.222;2023-07-13T04:43:35;6.72;;;3.90;;
13580;SDS011;6861;46.170;7.222;2023-07-13T04:46:06;4.35;;;3.67;;
13580;SDS011;6861;46.170;7.222;2023-07-13T04:48:36;6.35;;;3.47;;
13580;SDS011;6861;46.170;7.222;2023-07-13T04:51:05;6.60;;;3.83;;
13580;SDS011;6861;46.170;7.222;2023-07-13T04:53:34;5.05;;;3.80;;
13580;SDS011;6861;46.170;7.222;2023-07-13T04:56:02;5.07;;;3.55;;
13580;SDS011;6861;46.170;7.222;2023-07-13T04:58:31;6.22;;;4.03;;
13580;SDS011;6861;46.170;7.222;2023-07-13T05:01:00;21.70;;;14.70;;
13580;SDS011;6861;46.170;7.222;2023-07-13T05:03:31;92.32;;;55.10;;
13580;SDS011;6861;46.170;7.222;2023-07-13T05:06:02;123.85;;;68.72;;
13580;SDS011;6861;46.170;7.222;2023-07-13T05:08:31;79.00;;;45.58;;
13580;SDS011;6861;46.170;7.222;2023-07-13T05:10:59;15.98;;;9.77;;
13580;SDS011;6861;46.170;7.222;2023-07-13T05:13:28;9.05;;;5.25;;
13580;SDS011;6861;46.170;7.222;2023-07-13T05:15:57;7.90;;;4.68;;
13580;SDS011;6861;46.170;7.222;2023-07-13T05:18:27;7.60;;;5.35;;
13580;SDS011;6861;46.170;7.222;2023-07-13T05:21:00;10.27;;;5.90;;
13580;SDS011;6861;46.170;7.222;2023-07-13T05:23:31;7.07;;;4.82;;
13580;SDS011;6861;46.170;7.222;2023-07-13T05:26:00;6.68;;;4.97;;
13580;SDS011;6861;46.170;7.222;2023-07-13T05:28:33;8.30;;;4.82;;
13580;SDS011;6861;46.170;7.222;2023-07-13T05:31:01;9.48;;;4.20;;
13580;SDS011;6861;46.170;7.222;2023-07-13T05:33:30;5.88;;;4.00;;
13580;SDS011;6861;46.170;7.222;2023-07-13T05:35:59;5.80;;;3.78;;
13580;SDS011;6861;46.170;7.222;2023-07-13T05:38:28;6.72;;;4.25;;
13580;SDS011;6861;46.170;7.222;2023-07-13T05:40:57;7.65;;;4.50;;
13580;SDS011;6861;46.170;7.222;2023-07-13T05:43:29;6.53;;;3.50;;
13580;SDS011;6861;46.170;7.222;2023-07-13T05:45:57;8.57;;;4.05;;
13580;SDS011;6861;46.170;7.222;2023-07-13T05:48:25;5.65;;;3.55;;
13580;SDS011;6861;46.170;7.222;2023-07-13T05:50:53;7.05;;;3.65;;
13580;SDS011;6861;46.170;7.222;2023-07-13T05:53:23;8.77;;;4.18;;
13580;SDS011;6861;46.170;7.222;2023-07-13T05:55:51;9.02;;;3.95;;
13580;SDS011;6861;46.170;7.222;2023-07-13T05:58:23;7.75;;;3.40;;
13580;SDS011;6861;46.170;7.222;2023-07-13T06:00:58;10.35;;;3.45;;
13580;SDS011;6861;46.170;7.222;2023-07-13T06:03:27;5.40;;;3.05;;
13580;SDS011;6861;46.170;7.222;2023-07-13T06:05:55;5.47;;;3.15;;
13580;SDS011;6861;46.170;7.222;2023-07-13T06:08:25;5.43;;;3.03;;
13580;SDS011;6861;46.170;7.222;2023-07-13T06:10:53;5.70;;;3.28;;
13580;SDS011;6861;46.170;7.222;2023-07-13T06:13:22;3.63;;;3.10;;
13580;SDS011;6861;46.170;7.222;2023-07-13T06:15:50;4.15;;;2.80;;
13580;SDS011;6861;46.170;7.222;2023-07-13T06:18:18;6.07;;;3.60;;
13580;SDS011;6861;46.170;7.222;2023-07-13T06:20:46;4.72;;;3.35;;
13580;SDS011;6861;46.170;7.222;2023-07-13T06:23:14;3.92;;;2.67;;
13580;SDS011;6861;46.170;7.222;2023-07-13T06:25:44;4.72;;;2.92;;
13580;SDS011;6861;46.170;7.222;2023-07-13T06:28:12;4.28;;;2.67;;
13580;SDS011;6861;46.170;7.222;2023-07-13T06:30:40;6.18;;;2.90;;
13580;SDS011;6861;46.170;7.222;2023-07-13T06:33:09;4.35;;;2.78;;
13580;SDS011;6861;46.170;7.222;2023-07-13T06:35:37;5.68;;;2.70;;
13580;SDS011;6861;46.170;7.222;2023-07-13T06:38:05;4.90;;;3.20;;
13580;SDS011;6861;46.170;7.222;2023-07-13T06:40:33;4.03;;;2.88;;
13580;SDS011;6861;46.170;7.222;2023-07-13T06:43:03;4.57;;;2.83;;
13580;SDS011;6861;46.170;7.222;2023-07-13T06:45:32;5.22;;;2.80;;
13580;SDS011;6861;46.170;7.222;2023-07-13T06:48:03;3.72;;;2.10;;
13580;SDS011;6861;46.170;7.222;2023-07-13T06:50:31;3.88;;;2.33;;
13580;SDS011;6861;46.170;7.222;2023-07-13T06:53:00;4.60;;;2.42;;
13580;SDS011;6861;46.170;7.222;2023-07-13T06:55:29;4.68;;;1.90;;
13580;SDS011;6861;46.170;7.222;2023-07-13T06:57:57;3.85;;;1.92;;
13580;SDS011;6861;46.170;7.222;2023-07-13T07:00:26;4.05;;;2.13;;
13580;SDS011;6861;46.170;7.222;2023-07-13T07:02:55;2.67;;;1.90;;
13580;SDS011;6861;46.170;7.222;2023-07-13T07:05:23;2.30;;;1.88;;
13580;SDS011;6861;46.170;7.222;2023-07-13T07:07:53;2.30;;;1.60;;
13580;SDS011;6861;46.170;7.222;2023-07-13T07:10:22;2.03;;;1.58;;
13580;SDS011;6861;46.170;7.222;2023-07-13T07:12:51;4.57;;;2.20;;
13580;SDS011;6861;46.170;7.222;2023-07-13T07:15:19;3.33;;;2.05;;
13580;SDS011;6861;46.170;7.222;2023-07-13T07:17:48;2.83;;;1.90;;
13580;SDS011;6861;46.170;7.222;2023-07-13T07:20:17;2.70;;;1.98;;
13580;SDS011;6861;46.170;7.222;2023-07-13T07:22:45;3.35;;;1.90;;
13580;SDS011;6861;46.170;7.222;2023-07-13T07:25:13;4.32;;;1.60;;
13580;SDS011;6861;46.170;7.222;2023-07-13T07:27:42;2.58;;;1.83;;
13580;SDS011;6861;46.170;7.222;2023-07-13T07:30:13;3.20;;;1.63;;
13580;SDS011;6861;46.170;7.222;2023-07-13T07:32:44;3.40;;;1.85;;
13580;SDS011;6861;46.170;7.222;2023-07-13T07:35:17;3.20;;;2.10;;
13580;SDS011;6861;46.170;7.222;2023-07-13T07:37:46;2.65;;;1.55;;
13580;SDS011;6861;46.170;7.222;2023-07-13T07:40:16;2.67;;;1.90;;
13580;SDS011;6861;46.170;7.222;2023-07-13T07:42:48;2.33;;;1.65;;
13580;SDS011;6861;46.170;7.222;2023-07-13T07:45:16;2.15;;;1.50;;
13580;SDS011;6861;46.170;7.222;2023-07-13T07:47:44;3.72;;;1.40;;
13580;SDS011;6861;46.170;7.222;2023-07-13T07:50:12;2.80;;;1.58;;
13580;SDS011;6861;46.170;7.222;2023-07-13T07:52:42;2.92;;;1.50;;
13580;SDS011;6861;46.170;7.222;2023-07-13T07:55:11;2.45;;;1.40;;
13580;SDS011;6861;46.170;7.222;2023-07-13T07:57:42;3.28;;;1.52;;
13580;SDS011;6861;46.170;7.222;2023-07-13T08:00:14;3.72;;;1.58;;
13580;SDS011;6861;46.170;7.222;2023-07-13T08:02:46;2.72;;;1.35;;
13580;SDS011;6861;46.170;7.222;2023-07-13T08:05:17;1.27;;;1.17;;
13580;SDS011;6861;46.170;7.222;2023-07-13T08:07:50;3.15;;;1.60;;
13580;SDS011;6861;46.170;7.222;2023-07-13T08:10:18;2.20;;;1.50;;
13580;SDS011;6861;46.170;7.222;2023-07-13T08:12:47;4.05;;;1.45;;
13580;SDS011;6861;46.170;7.222;2023-07-13T08:15:18;2.85;;;1.35;;
13580;SDS011;6861;46.170;7.222;2023-07-13T08:17:47;1.50;;;1.20;;
13580;SDS011;6861;46.170;7.222;2023-07-13T08:20:15;1.40;;;1.20;;
13580;SDS011;6861;46.170;7.222;2023-07-13T08:22:44;1.67;;;1.20;;
13580;SDS011;6861;46.170;7.222;2023-07-13T08:25:14;1.35;;;1.10;;
13580;SDS011;6861;46.170;7.222;2023-07-13T08:27:42;1.67;;;1.30;;
13580;SDS011;6861;46.170;7.222;2023-07-13T08:30:11;1.48;;;1.30;;
13580;SDS011;6861;46.170;7.222;2023-07-13T08:32:39;2.72;;;1.42;;
13580;SDS011;6861;46.170;7.222;2023-07-13T08:35:07;1.60;;;1.10;;
13580;SDS011;6861;46.170;7.222;2023-07-13T08:37:36;2.80;;;1.30;;
13580;SDS011;6861;46.170;7.222;2023-07-13T08:40:04;1.90;;;1.30;;
13580;SDS011;6861;46.170;7.222;2023-07-13T08:42:39;2.00;;;1.20;;
13580;SDS011;6861;46.170;7.222;2023-07-13T08:45:13;2.00;;;1.10;;
13580;SDS011;6861;46.170;7.222;2023-07-13T08:47:45;1.77;;;1.17;;
13580;SDS011;6861;46.170;7.222;2023-07-13T08:50:21;3.08;;;1.17;;
13580;SDS011;6861;46.170;7.222;2023-07-13T08:52:53;1.40;;;0.95;;
13580;SDS011;6861;46.170;7.222;2023-07-13T08:55:26;1.73;;;1.10;;
13580;SDS011;6861;46.170;7.222;2023-07-13T08:58:01;1.13;;;1.00;;
13580;SDS011;6861;46.170;7.222;2023-07-13T09:00:43;1.13;;;0.88;;
13580;SDS011;6861;46.170;7.222;2023-07-13T09:03:20;1.25;;;0.95;;
13580;SDS011;6861;46.170;7.222;2023-07-13T09:05:52;1.48;;;1.08;;
13580;SDS011;6861;46.170;7.222;2023-07-13T09:08:29;3.45;;;1.00;;
13580;SDS011;6861;46.170;7.222;2023-07-13T09:11:06;2.08;;;0.93;;
13580;SDS011;6861;46.170;7.222;2023-07-13T09:13:45;1.90;;;0.90;;
13580;SDS011;6861;46.170;7.222;2023-07-13T09:16:22;2.78;;;0.90;;
13580;SDS011;6861;46.170;7.222;2023-07-13T09:18:52;1.75;;;0.80;;
13580;SDS011;6861;46.170;7.222;2023-07-13T09:21:24;1.33;;;0.85;;
13580;SDS011;6861;46.170;7.222;2023-07-13T09:23:58;2.10;;;0.90;;
13580;SDS011;6861;46.170;7.222;2023-07-13T09:26:30;1.13;;;0.63;;
13580;SDS011;6861;46.170;7.222;2023-07-13T09:29:03;0.77;;;0.68;;
13580;SDS011;6861;46.170;7.222;2023-07-13T09:31:50;0.80;;;0.70;;
13580;SDS011;6861;46.170;7.222;2023-07-13T09:34:22;1.60;;;0.63;;
13580;SDS011;6861;46.170;7.222;2023-07-13T09:36:50;1.60;;;0.68;;
13580;SDS011;6861;46.170;7.222;2023-07-13T09:39:21;1.92;;;0.70;;
13580;SDS011;6861;46.170;7.222;2023-07-13T09:41:55;0.60;;;0.60;;
13580;SDS011;6861;46.170;7.222;2023-07-13T09:44:33;1.00;;;0.70;;
13580;SDS011;6861;46.170;7.222;2023-07-13T09:47:03;1.42;;;0.60;;
13580;SDS011;6861;46.170;7.222;2023-07-13T09:49:42;1.55;;;0.60;;
13580;SDS011;6861;46.170;7.222;2023-07-13T09:52:12;1.00;;;0.77;;
13580;SDS011;6861;46.170;7.222;2023-07-13T09:54:44;0.60;;;0.60;;
13580;SDS011;6861;46.170;7.222;2023-07-13T09:57:15;0.93;;;0.73;;
13580;SDS011;6861;46.170;7.222;2023-07-13T09:59:48;0.70;;;0.60;;
13580;SDS011;6861;46.170;7.222;2023-07-13T10:02:23;2.05;;;0.68;;
13580;SDS011;6861;46.170;7.222;2023-07-13T10:04:57;1.23;;;0.73;;
13580;SDS011;6861;46.170;7.222;2023-07-13T10:07:26;1.20;;;0.65;;
13580;SDS011;6861;46.170;7.222;2023-07-13T10:09:56;2.67;;;0.70;;
13580;SDS011;6861;46.170;7.222;2023-07-13T10:12:25;1.10;;;0.73;;
13580;SDS011;6861;46.170;7.222;2023-07-13T10:14:56;0.60;;;0.60;;
13580;SDS011;6861;46.170;7.222;2023-07-13T10:17:47;0.73;;;0.60;;
13580;SDS011;6861;46.170;7.222;2023-07-13T10:20:17;0.68;;;0.52;;
13580;SDS011;6861;46.170;7.222;2023-07-13T10:22:49;0.88;;;0.60;;
13580;SDS011;6861;46.170;7.222;2023-07-13T10:25:23;0.80;;;0.70;;
13580;SDS011;6861;46.170;7.222;2023-07-13T10:27:53;0.75;;;0.50;;
13580;SDS011;6861;46.170;7.222;2023-07-13T10:30:29;0.55;;;0.50;;
13580;SDS011;6861;46.170;7.222;2023-07-13T10:33:02;0.95;;;0.60;;
13580;SDS011;6861;46.170;7.222;2023-07-13T10:35:38;1.08;;;0.57;;
13580;SDS011;6861;46.170;7.222;2023-07-13T10:38:10;2.55;;;0.75;;
13580;SDS011;6861;46.170;7.222;2023-07-13T10:40:41;0.90;;;0.70;;
13580;SDS011;6861;46.170;7.222;2023-07-13T10:43:13;0.63;;;0.60;;
13580;SDS011;6861;46.170;7.222;2023-07-13T10:45:48;1.05;;;0.68;;
13580;SDS011;6861;46.170;7.222;2023-07-13T10:48:17;0.80;;;0.63;;
13580;SDS011;6861;46.170;7.222;2023-07-13T10:50:48;0.65;;;0.55;;
13580;SDS011;6861;46.170;7.222;2023-07-13T10:53:20;1.13;;;0.80;;
13580;SDS011;6861;46.170;7.222;2023-07-13T10:55:56;1.02;;;0.90;;
13580;SDS011;6861;46.170;7.222;2023-07-13T10:58:31;1.00;;;0.80;;
13580;SDS011;6861;46.170;7.222;2023-07-13T11:01:07;1.77;;;0.80;;
13580;SDS011;6861;46.170;7.222;2023-07-13T11:03:46;0.80;;;0.80;;
13580;SDS011;6861;46.170;7.222;2023-07-13T11:06:28;2.47;;;0.82;;
13580;SDS011;6861;46.170;7.222;2023-07-13T11:09:17;1.15;;;0.85;;
13580;SDS011;6861;46.170;7.222;2023-07-13T11:11:56;0.82;;;0.70;;
13580;SDS011;6861;46.170;7.222;2023-07-13T11:14:27;1.92;;;0.85;;
13580;SDS011;6861;46.170;7.222;2023-07-13T11:16:59;1.38;;;0.90;;
13580;SDS011;6861;46.170;7.222;2023-07-13T11:20:19;2.13;;;0.95;;
13580;SDS011;6861;46.170;7.222;2023-07-13T11:22:50;1.00;;;0.80;;
13580;SDS011;6861;46.170;7.222;2023-07-13T11:25:21;1.67;;;0.80;;
13580;SDS011;6861;46.170;7.222;2023-07-13T11:28:06;2.25;;;0.80;;
13580;SDS011;6861;46.170;7.222;2023-07-13T11:30:43;0.75;;;0.70;;
13580;SDS011;6861;46.170;7.222;2023-07-13T11:33:21;2.15;;;1.00;;
13580;SDS011;6861;46.170;7.222;2023-07-13T11:35:58;2.15;;;0.93;;
13580;SDS011;6861;46.170;7.222;2023-07-13T11:38:32;1.83;;;0.77;;
13580;SDS011;6861;46.170;7.222;2023-07-13T11:41:04;0.95;;;0.85;;
13580;SDS011;6861;46.170;7.222;2023-07-13T11:43:34;1.27;;;0.90;;
13580;SDS011;6861;46.170;7.222;2023-07-13T11:46:13;1.45;;;1.00;;
13580;SDS011;6861;46.170;7.222;2023-07-13T11:48:43;1.40;;;1.00;;
13580;SDS011;6861;46.170;7.222;2023-07-13T11:51:17;1.30;;;1.20;;
13580;SDS011;6861;46.170;7.222;2023-07-13T11:53:49;1.80;;;1.10;;
13580;SDS011;6861;46.170;7.222;2023-07-13T11:56:22;2.35;;;0.90;;
13580;SDS011;6861;46.170;7.222;2023-07-13T11:58:54;1.55;;;1.00;;
13580;SDS011;6861;46.170;7.222;2023-07-13T12:01:25;1.77;;;1.13;;
13580;SDS011;6861;46.170;7.222;2023-07-13T12:04:01;1.27;;;1.00;;
13580;SDS011;6861;46.170;7.222;2023-07-13T12:06:31;2.20;;;0.80;;
13580;SDS011;6861;46.170;7.222;2023-07-13T12:09:03;1.30;;;1.10;;
13580;SDS011;6861;46.170;7.222;2023-07-13T12:11:40;2.08;;;1.02;;
13580;SDS011;6861;46.170;7.222;2023-07-13T12:14:13;1.45;;;0.80;;
13580;SDS011;6861;46.170;7.222;2023-07-13T12:16:42;1.60;;;1.00;;
13580;SDS011;6861;46.170;7.222;2023-07-13T12:19:17;2.97;;;0.90;;
13580;SDS011;6861;46.170;7.222;2023-07-13T12:21:48;2.03;;;1.17;;
13580;SDS011;6861;46.170;7.222;2023-07-13T12:24:17;2.70;;;0.98;;
13580;SDS011;6861;46.170;7.222;2023-07-13T12:26:52;1.40;;;0.98;;
13580;SDS011;6861;46.170;7.222;2023-07-13T12:29:22;1.80;;;1.02;;
13580;SDS011;6861;46.170;7.222;2023-07-13T12:31:50;1.05;;;0.70;;
13580;SDS011;6861;46.170;7.222;2023-07-13T12:34:21;3.20;;;1.05;;
13580;SDS011;6861;46.170;7.222;2023-07-13T12:36:52;2.08;;;0.98;;
13580;SDS011;6861;46.170;7.222;2023-07-13T12:39:23;2.85;;;0.95;;
13580;SDS011;6861;46.170;7.222;2023-07-13T12:41:53;1.05;;;0.90;;
13580;SDS011;6861;46.170;7.222;2023-07-13T12:44:25;5.72;;;1.10;;
13580;SDS011;6861;46.170;7.222;2023-07-13T12:46:57;3.05;;;1.00;;
13580;SDS011;6861;46.170;7.222;2023-07-13T12:49:30;1.95;;;0.98;;
13580;SDS011;6861;46.170;7.222;2023-07-13T12:52:02;2.25;;;1.15;;
13580;SDS011;6861;46.170;7.222;2023-07-13T12:54:38;1.48;;;1.10;;
13580;SDS011;6861;46.170;7.222;2023-07-13T12:57:17;2.65;;;0.90;;
13580;SDS011;6861;46.170;7.222;2023-07-13T12:59:45;0.98;;;0.88;;
13580;SDS011;6861;46.170;7.222;2023-07-13T13:02:19;2.22;;;1.00;;
13580;SDS011;6861;46.170;7.222;2023-07-13T13:04:53;2.78;;;1.10;;
13580;SDS011;6861;46.170;7.222;2023-07-13T13:07:23;1.00;;;0.90;;
13580;SDS011;6861;46.170;7.222;2023-07-13T13:09:52;1.17;;;1.02;;
13580;SDS011;6861;46.170;7.222;2023-07-13T13:12:21;1.35;;;1.10;;
13580;SDS011;6861;46.170;7.222;2023-07-13T13:14:50;1.38;;;1.08;;
13580;SDS011;6861;46.170;7.222;2023-07-13T13:17:19;1.42;;;1.05;;
13580;SDS011;6861;46.170;7.222;2023-07-13T13:19:50;2.15;;;1.00;;
13580;SDS011;6861;46.170;7.222;2023-07-13T13:22:22;1.13;;;0.90;;
13580;SDS011;6861;46.170;7.222;2023-07-13T13:24:50;3.83;;;1.15;;
13580;SDS011;6861;46.170;7.222;2023-07-13T13:27:19;1.00;;;0.88;;
13580;SDS011;6861;46.170;7.222;2023-07-13T13:29:50;2.15;;;1.17;;
13580;SDS011;6861;46.170;7.222;2023-07-13T13:32:19;1.20;;;0.90;;
13580;SDS011;6861;46.170;7.222;2023-07-13T13:34:48;2.05;;;0.80;;
13580;SDS011;6861;46.170;7.222;2023-07-13T13:37:18;4.97;;;1.10;;
13580;SDS011;6861;46.170;7.222;2023-07-13T13:39:49;1.45;;;0.90;;
13580;SDS011;6861;46.170;7.222;2023-07-13T13:42:33;2.10;;;1.00;;
13580;SDS011;6861;46.170;7.222;2023-07-13T13:45:02;3.08;;;1.33;;
13580;SDS011;6861;46.170;7.222;2023-07-13T13:47:31;5.30;;;1.30;;
13580;SDS011;6861;46.170;7.222;2023-07-13T13:50:09;3.05;;;0.90;;
13580;SDS011;6861;46.170;7.222;2023-07-13T13:52:39;2.70;;;1.08;;
13580;SDS011;6861;46.170;7.222;2023-07-13T13:55:15;3.00;;;1.30;;
13580;SDS011;6861;46.170;7.222;2023-07-13T13:57:46;2.03;;;1.02;;
13580;SDS011;6861;46.170;7.222;2023-07-13T14:00:15;1.45;;;0.85;;
13580;SDS011;6861;46.170;7.222;2023-07-13T14:02:45;1.70;;;1.00;;
13580;SDS011;6861;46.170;7.222;2023-07-13T14:05:18;1.35;;;1.00;;
13580;SDS011;6861;46.170;7.222;2023-07-13T14:07:49;3.30;;;0.90;;
13580;SDS011;6861;46.170;7.222;2023-07-13T14:10:19;1.23;;;1.08;;
13580;SDS011;6861;46.170;7.222;2023-07-13T14:12:50;1.95;;;1.00;;
13580;SDS011;6861;46.170;7.222;2023-07-13T14:15:21;1.80;;;1.00;;
13580;SDS011;6861;46.170;7.222;2023-07-13T14:17:51;2.75;;;1.10;;
13580;SDS011;6861;46.170;7.222;2023-07-13T14:20:21;2.47;;;1.00;;
13580;SDS011;6861;46.170;7.222;2023-07-13T14:22:51;1.15;;;1.00;;
13580;SDS011;6861;46.170;7.222;2023-07-13T14:25:23;1.50;;;0.80;;
13580;SDS011;6861;46.170;7.222;2023-07-13T14:27:53;2.42;;;0.95;;
13580;SDS011;6861;46.170;7.222;2023-07-13T14:30:25;2.53;;;0.90;;
13580;SDS011;6861;46.170;7.222;2023-07-13T14:32:53;1.95;;;1.00;;
13580;SDS011;6861;46.170;7.222;2023-07-13T14:35:22;5.88;;;0.93;;
13580;SDS011;6861;46.170;7.222;2023-07-13T14:37:51;1.67;;;0.80;;
13580;SDS011;6861;46.170;7.222;2023-07-13T14:40:21;1.83;;;0.90;;
13580;SDS011;6861;46.170;7.222;2023-07-13T14:42:56;1.33;;;0.90;;
13580;SDS011;6861;46.170;7.222;2023-07-13T14:45:24;1.20;;;0.85;;
13580;SDS011;6861;46.170;7.222;2023-07-13T14:47:54;1.45;;;1.00;;
13580;SDS011;6861;46.170;7.222;2023-07-13T14:50:24;1.50;;;1.00;;
13580;SDS011;6861;46.170;7.222;2023-07-13T14:52:57;3.00;;;0.95;;
13580;SDS011;6861;46.170;7.222;2023-07-13T14:55:27;3.00;;;1.00;;
13580;SDS011;6861;46.170;7.222;2023-07-13T14:57:55;3.80;;;1.00;;
13580;SDS011;6861;46.170;7.222;2023-07-13T15:00:24;2.08;;;1.13;;
13580;SDS011;6861;46.170;7.222;2023-07-13T15:02:54;2.25;;;1.08;;
13580;SDS011;6861;46.170;7.222;2023-07-13T15:05:26;1.25;;;0.90;;
13580;SDS011;6861;46.170;7.222;2023-07-13T15:07:57;1.13;;;1.00;;
13580;SDS011;6861;46.170;7.222;2023-07-13T15:10:29;1.08;;;0.90;;
13580;SDS011;6861;46.170;7.222;2023-07-13T15:12:59;1.48;;;1.05;;
13580;SDS011;6861;46.170;7.222;2023-07-13T15:15:31;1.73;;;1.10;;
13580;SDS011;6861;46.170;7.222;2023-07-13T15:18:02;2.90;;;0.98;;
13580;SDS011;6861;46.170;7.222;2023-07-13T15:20:31;1.33;;;1.00;;
13580;SDS011;6861;46.170;7.222;2023-07-13T15:23:02;1.38;;;0.90;;